createdAt,value
2023-05-15T00:02:15.815Z,6.80
2023-05-15T00:04:42.872Z,7.45
2023-05-15T00:07:10.063Z,7.95
2023-05-15T00:09:37.113Z,7.63
2023-05-15T00:12:04.262Z,7.68
2023-05-15T00:14:31.304Z,8.38
2023-05-15T00:16:58.374Z,8.63
2023-05-15T00:19:25.524Z,8.82
2023-05-15T00:21:52.710Z,8.88
2023-05-15T00:24:19.850Z,8.75
2023-05-15T00:26:46.843Z,8.35
2023-05-15T00:29:13.856Z,8.10
2023-05-15T00:31:40.842Z,8.43
2023-05-15T00:34:07.948Z,9.23
2023-05-15T00:36:35.661Z,9.45
2023-05-15T00:39:02.738Z,8.90
2023-05-15T00:41:32.646Z,9.02
2023-05-15T00:44:01.106Z,8.93
2023-05-15T00:46:30.989Z,9.45
2023-05-15T00:48:58.543Z,10.13
2023-05-15T00:51:27.062Z,9.25
2023-05-15T00:53:55.008Z,9.48
2023-05-15T00:56:22.676Z,9.57
2023-05-15T00:58:50.782Z,9.90
2023-05-15T01:01:18.919Z,9.35
2023-05-15T01:03:46.521Z,9.40
2023-05-15T01:06:13.854Z,9.00
2023-05-15T01:08:44.225Z,10.02
2023-05-15T01:11:13.786Z,9.80
2023-05-15T01:13:41.164Z,9.40
2023-05-15T01:16:09.128Z,9.45
2023-05-15T01:18:37.002Z,9.80
2023-05-15T01:21:40.864Z,9.75
2023-05-15T01:25:02.136Z,10.02
2023-05-15T01:27:37.569Z,10.35
2023-05-15T01:30:43.854Z,10.30
2023-05-15T01:33:26.003Z,10.23
2023-05-15T01:36:08.229Z,10.02
2023-05-15T01:38:43.051Z,10.90
2023-05-15T01:41:31.537Z,10.65
2023-05-15T01:44:22.556Z,11.27
2023-05-15T01:46:55.794Z,11.55
2023-05-15T01:49:26.382Z,11.13
2023-05-15T01:52:00.145Z,10.57
2023-05-15T01:54:30.052Z,11.18
2023-05-15T01:56:58.344Z,11.88
2023-05-15T01:59:26.269Z,10.57
2023-05-15T02:01:53.659Z,12.13
2023-05-15T02:04:22.186Z,10.95
2023-05-15T02:06:50.627Z,10.95
2023-05-15T02:09:20.168Z,11.65
2023-05-15T02:11:48.290Z,10.30
2023-05-15T02:14:17.323Z,11.70
2023-05-15T02:16:46.262Z,10.75
2023-05-15T02:19:13.879Z,12.13
2023-05-15T02:21:41.021Z,11.00
2023-05-15T02:24:08.089Z,10.98
2023-05-15T02:26:56.939Z,12.00
2023-05-15T02:29:47.945Z,10.25
2023-05-15T02:32:29.494Z,12.52
2023-05-15T02:35:22.018Z,13.43
2023-05-15T02:37:52.531Z,13.88
2023-05-15T02:40:21.701Z,13.98
2023-05-15T02:42:49.985Z,15.10
2023-05-15T02:45:17.674Z,17.15
2023-05-15T02:47:45.184Z,21.30
2023-05-15T02:50:12.524Z,22.23
2023-05-15T02:52:39.486Z,20.67
2023-05-15T02:55:07.150Z,20.38
2023-05-15T02:57:34.178Z,18.10
2023-05-15T03:00:01.733Z,16.05
2023-05-15T03:02:32.202Z,15.50
2023-05-15T03:04:59.285Z,17.75
2023-05-15T03:07:27.120Z,15.65
2023-05-15T03:09:54.249Z,14.05
2023-05-15T03:12:21.455Z,11.23
2023-05-15T03:14:48.570Z,11.50
2023-05-15T03:17:16.005Z,12.25
2023-05-15T03:19:43.165Z,12.43
2023-05-15T03:22:10.171Z,11.88
2023-05-15T03:24:37.163Z,10.50
2023-05-15T03:27:04.976Z,10.50
2023-05-15T03:29:32.109Z,10.55
2023-05-15T03:31:59.157Z,9.32
2023-05-15T03:34:26.237Z,9.50
2023-05-15T03:36:53.313Z,8.73
2023-05-15T03:39:20.396Z,8.43
2023-05-15T03:41:47.407Z,7.00
2023-05-15T03:44:14.513Z,7.60
2023-05-15T03:46:41.699Z,7.10
2023-05-15T03:49:11.786Z,6.63
2023-05-15T03:51:38.966Z,7.65
2023-05-15T03:54:06.317Z,7.35
2023-05-15T03:56:33.498Z,6.63
2023-05-15T03:59:00.560Z,7.32
2023-05-15T04:01:27.561Z,6.60
2023-05-15T04:03:54.582Z,6.53
2023-05-15T04:06:22.979Z,6.85
2023-05-15T04:08:50.430Z,6.30
2023-05-15T04:11:17.488Z,6.47
2023-05-15T04:13:44.492Z,6.03
2023-05-15T04:16:11.565Z,6.10
2023-05-15T04:18:38.716Z,6.22
2023-05-15T04:21:05.742Z,6.40
2023-05-15T04:23:32.742Z,5.65
2023-05-15T04:25:59.796Z,5.60
2023-05-15T04:28:28.086Z,5.57
2023-05-15T04:30:55.955Z,5.53
2023-05-15T04:33:23.086Z,5.47
2023-05-15T04:35:50.166Z,5.35
2023-05-15T04:38:17.178Z,5.10
2023-05-15T04:40:44.358Z,4.80
2023-05-15T04:43:11.521Z,4.65
2023-05-15T04:45:38.590Z,4.68
2023-05-15T04:48:06.700Z,4.65
2023-05-15T04:50:33.826Z,3.88
2023-05-15T04:53:00.838Z,4.13
2023-05-15T04:55:27.907Z,3.60
2023-05-15T04:57:54.919Z,3.95
2023-05-15T05:00:22.111Z,3.30
2023-05-15T05:02:49.292Z,3.90
2023-05-15T05:05:16.652Z,3.28
2023-05-15T05:07:45.838Z,3.45
2023-05-15T05:10:13.968Z,2.92
2023-05-15T05:12:40.922Z,2.88
2023-05-15T05:15:08.841Z,2.60
2023-05-15T05:17:35.912Z,3.10
2023-05-15T05:20:03.019Z,2.72
2023-05-15T05:22:31.413Z,2.78
2023-05-15T05:24:58.422Z,2.15
2023-05-15T05:27:25.429Z,2.47
2023-05-15T05:29:54.257Z,2.30
2023-05-15T05:32:21.280Z,2.40
2023-05-15T05:34:48.279Z,2.30
2023-05-15T05:37:15.340Z,2.80
2023-05-15T05:39:42.364Z,2.30
2023-05-15T05:42:09.424Z,2.03
2023-05-15T05:44:36.389Z,2.20
2023-05-15T05:47:03.645Z,2.95
2023-05-15T05:49:30.771Z,2.20
2023-05-15T05:51:57.723Z,2.33
2023-05-15T05:54:24.757Z,1.90
2023-05-15T05:56:51.756Z,2.10
2023-05-15T05:59:18.754Z,2.05
2023-05-15T06:01:46.103Z,1.83
2023-05-15T06:04:13.184Z,1.70
2023-05-15T06:06:41.342Z,1.80
2023-05-15T06:09:08.651Z,1.90
2023-05-15T06:11:35.625Z,1.73
2023-05-15T06:14:02.573Z,2.00
2023-05-15T06:16:29.606Z,1.90
2023-05-15T06:18:56.717Z,1.60
2023-05-15T06:21:23.749Z,1.73
2023-05-15T06:23:50.818Z,1.88
2023-05-15T06:26:18.028Z,1.70
2023-05-15T06:28:45.143Z,1.52
2023-05-15T06:31:12.196Z,1.75
2023-05-15T06:33:39.187Z,1.70
2023-05-15T06:36:06.389Z,1.88
2023-05-15T06:38:33.371Z,1.60
2023-05-15T06:41:00.444Z,1.67
2023-05-15T06:43:27.451Z,1.50
2023-05-15T06:45:54.534Z,2.08
2023-05-15T06:48:21.561Z,2.10
2023-05-15T06:50:48.590Z,1.58
2023-05-15T06:53:17.761Z,1.65
2023-05-15T06:55:44.934Z,1.83
2023-05-15T06:58:12.293Z,2.00
2023-05-15T07:00:39.397Z,2.00
2023-05-15T07:03:06.603Z,2.30
2023-05-15T07:05:33.636Z,2.03
2023-05-15T07:08:00.701Z,1.90
2023-05-15T07:10:27.965Z,1.80
2023-05-15T07:12:55.366Z,2.58
2023-05-15T07:15:22.525Z,2.20
2023-05-15T07:17:49.667Z,2.22
2023-05-15T07:20:16.765Z,1.98
2023-05-15T07:22:55.040Z,1.60
2023-05-15T07:25:23.870Z,2.22
2023-05-15T07:27:51.435Z,2.17
2023-05-15T07:30:19.242Z,1.90
2023-05-15T07:32:46.346Z,1.98
2023-05-15T07:35:13.461Z,2.00
2023-05-15T07:37:41.158Z,1.98
2023-05-15T07:40:08.677Z,2.00
2023-05-15T07:42:35.917Z,1.88
2023-05-15T07:45:03.371Z,1.90
2023-05-15T07:47:32.583Z,2.63
2023-05-15T07:49:59.906Z,2.00
2023-05-15T07:52:26.961Z,1.90
2023-05-15T07:54:54.102Z,1.83
2023-05-15T07:57:21.092Z,1.85
2023-05-15T07:59:48.111Z,1.70
2023-05-15T08:02:15.110Z,1.88
2023-05-15T08:04:42.144Z,2.00
2023-05-15T08:07:09.109Z,1.75
2023-05-15T08:09:36.077Z,1.88
2023-05-15T08:12:21.458Z,1.73
2023-05-15T08:14:55.790Z,1.73
2023-05-15T08:17:24.937Z,1.67
2023-05-15T08:19:52.883Z,1.90
2023-05-15T08:22:20.037Z,2.30
2023-05-15T08:24:47.171Z,1.90
2023-05-15T08:27:14.180Z,1.70
2023-05-15T08:29:41.193Z,2.28
2023-05-15T08:32:09.646Z,1.80
2023-05-15T08:34:36.625Z,1.90
2023-05-15T08:37:05.186Z,2.13
2023-05-15T08:39:32.207Z,1.90
2023-05-15T08:42:20.053Z,2.13
2023-05-15T08:44:48.027Z,1.73
2023-05-15T08:47:16.108Z,1.40
2023-05-15T08:50:07.581Z,1.70
2023-05-15T08:52:35.806Z,1.80
2023-05-15T08:55:04.016Z,1.88
2023-05-15T08:57:33.954Z,1.70
2023-05-15T09:00:05.693Z,1.80
2023-05-15T09:02:39.803Z,1.60
2023-05-15T09:05:08.430Z,1.45
2023-05-15T09:07:38.330Z,1.50
2023-05-15T09:10:06.337Z,1.70
2023-05-15T09:12:39.430Z,1.60
2023-05-15T09:15:11.691Z,1.63
2023-05-15T09:17:39.944Z,1.67
2023-05-15T09:20:08.414Z,1.70
2023-05-15T09:22:36.530Z,1.52
2023-05-15T09:25:04.625Z,1.40
2023-05-15T09:27:43.071Z,1.63
2023-05-15T09:30:10.854Z,1.50
2023-05-15T09:32:38.558Z,2.67
2023-05-15T09:35:31.116Z,1.50
2023-05-15T09:38:02.113Z,1.48
2023-05-15T09:40:31.404Z,1.83
2023-05-15T09:42:59.388Z,1.80
2023-05-15T09:45:30.052Z,1.50
2023-05-15T09:48:04.621Z,1.48
2023-05-15T09:50:39.811Z,1.40
2023-05-15T09:53:07.190Z,1.40
2023-05-15T09:55:35.166Z,1.50
2023-05-15T09:58:11.269Z,1.60
2023-05-15T10:00:48.378Z,1.40
2023-05-15T10:03:22.023Z,1.60
2023-05-15T10:05:49.255Z,1.35
2023-05-15T10:08:27.303Z,1.30
2023-05-15T10:10:55.161Z,1.40
2023-05-15T10:13:23.053Z,1.58
2023-05-15T10:15:51.440Z,1.77
2023-05-15T10:18:21.798Z,1.80
2023-05-15T10:20:49.654Z,1.55
2023-05-15T10:23:18.518Z,1.50
2023-05-15T10:25:55.897Z,1.40
2023-05-15T10:28:23.993Z,1.50
2023-05-15T10:30:52.262Z,1.60
2023-05-15T10:33:20.358Z,1.50
2023-05-15T10:35:49.124Z,1.60
2023-05-15T10:38:17.473Z,1.38
2023-05-15T10:40:45.786Z,1.40
2023-05-15T10:43:14.322Z,1.50
2023-05-15T10:45:42.237Z,1.30
2023-05-15T10:48:12.407Z,1.63
2023-05-15T10:50:39.731Z,1.60
2023-05-15T10:53:07.177Z,1.42
2023-05-15T10:55:34.230Z,1.55
2023-05-15T10:58:01.286Z,1.60
2023-05-15T11:00:31.456Z,1.70
2023-05-15T11:02:59.362Z,1.60
2023-05-15T11:05:27.001Z,1.50
2023-05-15T11:08:15.837Z,1.58
2023-05-15T11:10:42.877Z,1.40
2023-05-15T11:13:10.070Z,1.40
2023-05-15T11:15:45.016Z,1.80
2023-05-15T11:18:13.211Z,1.42
2023-05-15T11:20:41.476Z,1.60
2023-05-15T11:23:09.369Z,1.60
2023-05-15T11:25:37.116Z,1.35
2023-05-15T11:28:05.163Z,1.48
2023-05-15T11:30:40.005Z,1.48
2023-05-15T11:33:11.466Z,1.60
2023-05-15T11:35:43.600Z,1.58
2023-05-15T11:38:10.734Z,1.67
2023-05-15T11:40:47.429Z,1.67
2023-05-15T11:46:13.900Z,1.80
2023-05-15T11:48:47.862Z,1.55
2023-05-15T11:51:25.220Z,1.58
2023-05-15T11:53:54.503Z,1.90
2023-05-15T11:56:30.007Z,1.80
2023-05-15T11:58:59.283Z,1.50
2023-05-15T12:01:26.757Z,1.85
2023-05-15T12:03:55.130Z,1.83
2023-05-15T12:06:23.074Z,1.90
2023-05-15T12:08:53.801Z,1.60
2023-05-15T12:11:25.330Z,2.00
2023-05-15T12:13:56.229Z,1.65
2023-05-15T12:16:27.257Z,2.08
2023-05-15T12:18:57.159Z,1.70
2023-05-15T12:21:26.901Z,1.85
2023-05-15T12:24:07.258Z,1.80
2023-05-15T12:26:36.095Z,1.58
2023-05-15T12:29:04.945Z,1.55
2023-05-15T12:31:34.751Z,1.65
2023-05-15T12:34:02.246Z,3.10
2023-05-15T12:36:32.036Z,1.80
2023-05-15T12:39:04.738Z,1.95
2023-05-15T12:41:33.064Z,1.70
2023-05-15T12:44:00.188Z,1.80
2023-05-15T12:46:30.729Z,1.90
2023-05-15T12:48:59.738Z,1.90
2023-05-15T12:51:27.671Z,1.92
2023-05-15T12:53:57.607Z,2.13
2023-05-15T12:56:24.869Z,2.50
2023-05-15T12:58:54.762Z,1.67
2023-05-15T13:01:22.150Z,1.95
2023-05-15T13:03:49.985Z,1.90
2023-05-15T13:06:17.295Z,1.73
2023-05-15T13:08:45.710Z,1.60
2023-05-15T13:11:14.388Z,1.75
2023-05-15T13:13:47.224Z,2.40
2023-05-15T13:16:29.844Z,2.10
2023-05-15T13:19:00.647Z,2.20
2023-05-15T13:21:27.898Z,1.92
2023-05-15T13:23:54.931Z,2.20
2023-05-15T13:26:21.974Z,2.53
2023-05-15T13:28:49.190Z,1.73
2023-05-15T13:31:17.305Z,2.42
2023-05-15T13:33:44.574Z,2.13
2023-05-15T13:36:12.134Z,2.13
2023-05-15T13:38:39.395Z,1.75
2023-05-15T13:41:06.480Z,2.50
2023-05-15T13:43:33.501Z,2.28
2023-05-15T13:46:00.658Z,2.00
2023-05-15T13:48:27.720Z,5.30
2023-05-15T13:50:54.730Z,3.13
2023-05-15T13:53:21.771Z,2.35
2023-05-15T13:55:48.807Z,2.10
2023-05-15T13:58:15.822Z,1.77
2023-05-15T14:00:44.222Z,1.70
2023-05-15T14:03:13.427Z,2.30
2023-05-15T14:05:42.273Z,1.80
2023-05-15T14:08:09.558Z,2.30
2023-05-15T14:10:37.489Z,2.10
2023-05-15T14:13:04.930Z,1.85
2023-05-15T14:15:31.951Z,1.80
2023-05-15T14:17:59.025Z,1.77
2023-05-15T14:20:26.534Z,2.00
2023-05-15T14:22:53.797Z,1.65
2023-05-15T14:25:20.869Z,2.05
2023-05-15T14:27:47.913Z,1.67
2023-05-15T14:30:15.098Z,1.70
2023-05-15T14:32:42.222Z,1.70
2023-05-15T14:35:09.258Z,2.03
2023-05-15T14:37:37.539Z,1.80
2023-05-15T14:40:05.259Z,1.83
2023-05-15T14:42:32.814Z,1.50
2023-05-15T14:44:59.929Z,1.80
2023-05-15T14:47:28.560Z,1.83
2023-05-15T14:49:56.198Z,1.90
2023-05-15T14:52:23.695Z,1.67
2023-05-15T14:55:04.954Z,1.92
2023-05-15T14:57:35.565Z,1.80
2023-05-15T15:00:02.697Z,1.80
2023-05-15T15:02:33.011Z,1.88
2023-05-15T15:05:00.205Z,1.80
2023-05-15T15:07:30.666Z,2.25
2023-05-15T15:09:57.726Z,3.20
2023-05-15T15:12:24.683Z,2.40
2023-05-15T15:14:51.706Z,2.10
2023-05-15T15:17:18.822Z,2.00
2023-05-15T15:19:45.996Z,1.70
2023-05-15T15:22:13.050Z,1.70
2023-05-15T15:24:40.055Z,1.88
2023-05-15T15:27:07.116Z,1.70
2023-05-15T15:29:34.138Z,1.77
2023-05-15T15:32:01.171Z,1.75
2023-05-15T15:34:28.247Z,1.90
2023-05-15T15:36:55.217Z,1.70
2023-05-15T15:39:22.240Z,1.70
2023-05-15T15:41:50.378Z,1.80
2023-05-15T15:44:17.394Z,1.85
2023-05-15T15:46:44.383Z,1.83
2023-05-15T15:49:11.364Z,1.77
2023-05-15T15:51:38.431Z,2.10
2023-05-15T15:54:05.591Z,2.53
2023-05-15T15:56:32.774Z,1.98
2023-05-15T15:58:59.786Z,1.98
2023-05-15T16:01:27.839Z,1.90
2023-05-15T16:03:54.907Z,1.90
2023-05-15T16:06:21.970Z,2.08
2023-05-15T16:08:48.992Z,2.30
2023-05-15T16:11:16.577Z,2.00
2023-05-15T16:13:44.575Z,2.03
2023-05-15T16:16:11.664Z,2.15
2023-05-15T16:18:38.788Z,2.10
2023-05-15T16:21:05.873Z,2.05
2023-05-15T16:23:42.800Z,1.55
2023-05-15T16:26:11.339Z,1.88
2023-05-15T16:28:38.592Z,1.77
2023-05-15T16:31:05.771Z,1.85
2023-05-15T16:33:33.192Z,1.48
2023-05-15T16:36:00.399Z,1.85
2023-05-15T16:38:27.521Z,1.75
2023-05-15T16:40:54.545Z,2.10
2023-05-15T16:43:22.038Z,2.00
2023-05-15T16:45:49.255Z,2.33
2023-05-15T16:48:16.467Z,2.20
2023-05-15T16:50:43.560Z,2.53
2023-05-15T16:53:10.780Z,2.35
2023-05-15T16:55:38.185Z,3.85
2023-05-15T16:58:05.709Z,5.88
2023-05-15T17:00:32.859Z,6.43
2023-05-15T17:02:59.973Z,3.90
2023-05-15T17:05:27.205Z,4.32
2023-05-15T17:07:54.244Z,3.10
2023-05-15T17:10:21.287Z,2.72
2023-05-15T17:12:48.342Z,2.80
2023-05-15T17:15:15.632Z,2.40
2023-05-15T17:17:42.737Z,3.60
2023-05-15T17:20:10.577Z,2.20
2023-05-15T17:22:37.631Z,2.63
2023-05-15T17:25:05.158Z,2.00
2023-05-15T17:27:34.875Z,2.10
2023-05-15T17:30:02.121Z,2.22
2023-05-15T17:32:31.605Z,2.70
2023-05-15T17:34:58.826Z,2.63
2023-05-15T17:37:25.869Z,2.88
2023-05-15T17:39:54.653Z,3.03
2023-05-15T17:42:22.482Z,2.88
2023-05-15T17:44:49.627Z,2.90
2023-05-15T17:47:16.799Z,3.30
2023-05-15T17:49:44.230Z,3.80
2023-05-15T17:52:11.403Z,3.72
2023-05-15T17:54:38.474Z,4.43
2023-05-15T17:57:06.127Z,4.00
2023-05-15T17:59:33.448Z,4.00
2023-05-15T18:02:00.701Z,4.22
2023-05-15T18:04:28.381Z,4.28
2023-05-15T18:06:55.521Z,4.45
2023-05-15T18:09:24.148Z,4.45
2023-05-15T18:11:52.329Z,4.93
2023-05-15T18:14:19.744Z,4.47
2023-05-15T18:16:46.842Z,4.28
2023-05-15T18:19:14.074Z,4.80
2023-05-15T18:21:41.164Z,4.72
2023-05-15T18:24:08.215Z,4.43
2023-05-15T18:26:35.275Z,5.10
2023-05-15T18:29:02.578Z,5.30
2023-05-15T18:31:29.918Z,5.78
2023-05-15T18:33:57.153Z,6.03
2023-05-15T18:36:24.408Z,6.55
2023-05-15T18:38:51.732Z,7.78
2023-05-15T18:41:18.844Z,11.05
2023-05-15T18:43:46.489Z,13.50
2023-05-15T18:46:13.766Z,12.85
2023-05-15T18:48:41.118Z,15.57
2023-05-15T18:51:09.780Z,15.93
2023-05-15T18:53:37.073Z,14.73
2023-05-15T18:56:04.754Z,15.80
2023-05-15T18:58:32.138Z,15.00
2023-05-15T19:01:00.309Z,14.73
2023-05-15T19:03:27.808Z,14.40
2023-05-15T19:05:56.651Z,13.00
2023-05-15T19:08:24.031Z,13.27
2023-05-15T19:10:51.298Z,12.18
2023-05-15T19:13:19.149Z,11.82
2023-05-15T19:15:54.957Z,12.23
2023-05-15T19:18:22.043Z,11.48
2023-05-15T19:20:50.515Z,11.70
2023-05-15T19:23:17.849Z,11.27
2023-05-15T19:25:45.174Z,12.45
2023-05-15T19:28:13.123Z,11.68
2023-05-15T19:30:40.198Z,11.43
2023-05-15T19:33:07.326Z,11.77
2023-05-15T19:35:36.681Z,11.82
2023-05-15T19:38:04.754Z,11.25
2023-05-15T19:40:31.823Z,12.43
2023-05-15T19:42:58.842Z,12.70
2023-05-15T19:45:25.946Z,11.95
2023-05-15T19:47:53.174Z,11.65
2023-05-15T19:50:20.474Z,12.43
2023-05-15T19:52:47.702Z,12.77
2023-05-15T19:55:15.276Z,12.43
2023-05-15T19:57:45.017Z,13.13
2023-05-15T20:00:13.101Z,12.73
2023-05-15T20:02:41.519Z,12.18
2023-05-15T20:05:09.473Z,12.65
2023-05-15T20:07:37.305Z,12.40
2023-05-15T20:10:05.206Z,11.88
2023-05-15T20:12:32.892Z,11.98
2023-05-15T20:15:00.258Z,12.35
2023-05-15T20:17:27.727Z,10.98
2023-05-15T20:19:54.855Z,11.40
2023-05-15T20:22:22.007Z,11.93
2023-05-15T20:24:50.088Z,11.68
2023-05-15T20:27:17.178Z,11.43
2023-05-15T20:29:45.364Z,10.50
2023-05-15T20:32:13.761Z,9.65
2023-05-15T20:34:42.713Z,10.05
2023-05-15T20:37:10.119Z,9.25
2023-05-15T20:39:37.136Z,9.70
2023-05-15T20:42:04.344Z,9.40
2023-05-15T20:44:31.350Z,10.00
2023-05-15T20:46:58.378Z,10.10
2023-05-15T20:49:25.445Z,10.20
2023-05-15T20:51:52.739Z,9.82
2023-05-15T20:54:19.773Z,10.10
2023-05-15T20:56:46.832Z,10.40
2023-05-15T20:59:13.820Z,9.90
2023-05-15T21:01:41.063Z,10.35
2023-05-15T21:04:08.249Z,8.93
2023-05-15T21:06:36.094Z,8.93
2023-05-15T21:09:03.205Z,9.00
2023-05-15T21:11:30.348Z,9.13
2023-05-15T21:13:57.533Z,10.00
2023-05-15T21:16:24.718Z,10.05
2023-05-15T21:18:52.806Z,11.70
2023-05-15T21:21:20.760Z,9.13
2023-05-15T21:23:47.838Z,9.98
2023-05-15T21:26:15.601Z,9.02
2023-05-15T21:28:42.639Z,7.72
2023-05-15T21:31:10.454Z,8.18
2023-05-15T21:33:38.186Z,8.68
2023-05-15T21:36:05.458Z,8.55
2023-05-15T21:38:32.866Z,7.45
2023-05-15T21:41:01.399Z,7.25
2023-05-15T21:43:28.499Z,7.30
2023-05-15T21:45:56.363Z,7.38
2023-05-15T21:48:23.893Z,7.32
2023-05-15T21:50:50.931Z,6.60
2023-05-15T21:53:17.979Z,7.43
2023-05-15T21:55:45.026Z,6.93
2023-05-15T21:58:12.012Z,6.50
2023-05-15T22:00:40.473Z,7.00
2023-05-15T22:03:07.755Z,6.28
2023-05-15T22:05:34.896Z,6.32
2023-05-15T22:08:01.944Z,6.22
2023-05-15T22:10:29.063Z,6.68
2023-05-15T22:12:56.163Z,6.38
2023-05-15T22:15:23.177Z,6.22
2023-05-15T22:17:50.516Z,6.10
2023-05-15T22:20:18.670Z,7.00
2023-05-15T22:22:46.183Z,6.18
2023-05-15T22:25:13.684Z,5.97
2023-05-15T22:27:41.421Z,7.22
2023-05-15T22:30:09.109Z,6.60
2023-05-15T22:32:36.325Z,7.25
2023-05-15T22:35:04.004Z,7.15
2023-05-15T22:37:32.228Z,6.85
2023-05-15T22:39:59.923Z,8.07
2023-05-15T22:42:28.202Z,7.57
2023-05-15T22:44:58.498Z,7.28
2023-05-15T22:47:28.286Z,8.65
2023-05-15T22:49:55.395Z,7.28
2023-05-15T22:52:22.743Z,8.23
2023-05-15T22:55:12.997Z,7.40
2023-05-15T22:57:40.242Z,7.32
2023-05-15T23:00:08.182Z,7.57
2023-05-15T23:02:39.660Z,7.47
2023-05-15T23:05:07.915Z,7.53
2023-05-15T23:07:50.283Z,8.23
2023-05-15T23:10:36.027Z,7.38
2023-05-15T23:13:04.690Z,7.22
2023-05-15T23:15:34.809Z,6.93
2023-05-15T23:18:01.979Z,6.93
2023-05-15T23:20:29.277Z,6.50
2023-05-15T23:22:56.514Z,6.65
2023-05-15T23:25:23.654Z,6.95
2023-05-15T23:27:50.650Z,6.53
2023-05-15T23:30:17.777Z,6.82
2023-05-15T23:32:44.830Z,6.22
2023-05-15T23:35:11.926Z,5.82
2023-05-15T23:37:39.152Z,5.65
2023-05-15T23:40:06.862Z,4.93
2023-05-15T23:42:34.065Z,6.45
2023-05-15T23:45:01.342Z,6.28
2023-05-15T23:47:32.851Z,5.90
2023-05-15T23:49:59.891Z,5.80
2023-05-15T23:52:26.880Z,5.85
2023-05-15T23:54:53.882Z,5.90
2023-05-15T23:57:20.894Z,6.28
2023-05-15T23:59:47.948Z,6.07
